Time;durP1;ratioP1;P1;durP2;ratioP2;P2;SDS_P1;SDS_P2;PMS_P1;PMS_P2;Temp;Humidity;BMP_temperature;BMP_pressure;BME280_temperature;BME280_humidity;BME280_pressure;Samples;Min_cycle;Max_cycle;Signal;HPM_P1;HPM_P2
2021/05/29 00:01:48;;;;;;;5.53;4.93;;;18.70;58.90;;;;;;6150819;23;20135;-84
2021/05/29 00:04:21;;;;;;;6.80;5.50;;;18.70;58.90;;;;;;6152218;23;20161;-84
2021/05/29 00:06:50;;;;;;;5.85;5.22;;;18.70;58.90;;;;;;6151592;23;20145;-84
2021/05/29 00:09:16;;;;;;;6.07;5.15;;;18.70;58.90;;;;;;6151180;23;20158;-84
2021/05/29 00:11:43;;;;;;;6.05;5.05;;;18.80;59.50;;;;;;6175596;23;20131;-84
2021/05/29 00:14:11;;;;;;;7.32;5.22;;;18.70;58.80;;;;;;6150584;23;20146;-84
2021/05/29 00:16:39;;;;;;;6.15;5.00;;;18.70;58.80;;;;;;6150536;23;20260;-84
2021/05/29 00:19:16;;;;;;;6.03;5.25;;;18.70;58.80;;;;;;6175403;23;20127;-84
2021/05/29 00:21:46;;;;;;;6.00;5.20;;;18.80;58.90;;;;;;6150096;23;20155;-84
2021/05/29 00:24:21;;;;;;;6.05;4.82;;;18.80;58.80;;;;;;6149726;23;20135;-85
2021/05/29 00:26:49;;;;;;;6.68;5.38;;;18.70;58.70;;;;;;6150601;23;20147;-84
2021/05/29 00:29:16;;;;;;;7.07;6.05;;;18.70;58.80;;;;;;6176987;23;20131;-84
2021/05/29 00:31:50;;;;;;;6.10;4.95;;;18.70;58.70;;;;;;6176888;23;20134;-84
2021/05/29 00:34:25;;;;;;;6.82;5.35;;;18.70;58.80;;;;;;6152212;23;20139;-84
2021/05/29 00:36:54;;;;;;;5.68;5.03;;;18.70;58.80;;;;;;6151722;23;20178;-84
2021/05/29 00:39:22;;;;;;;6.18;5.45;;;18.80;58.70;;;;;;6152058;23;20209;-84
2021/05/29 00:41:53;;;;;;;5.95;5.35;;;18.70;59.50;;;;;;6177001;23;20183;-84
2021/05/29 00:44:25;;;;;;;6.18;5.57;;;18.70;58.90;;;;;;6176359;23;20155;-84
2021/05/29 00:46:51;;;;;;;5.72;4.90;;;18.70;58.90;;;;;;6177193;23;20131;-84
2021/05/29 00:49:37;;;;;;;5.72;4.97;;;18.70;59.00;;;;;;6151911;23;20131;-84
2021/05/29 00:52:07;;;;;;;6.32;5.47;;;18.70;58.90;;;;;;6152319;23;20143;-84
2021/05/29 00:54:34;;;;;;;6.13;5.15;;;18.70;59.10;;;;;;6152693;23;20170;-84
2021/05/29 00:57:02;;;;;;;5.90;4.97;;;18.70;58.90;;;;;;6126637;23;20242;-84
2021/05/29 00:59:31;;;;;;;5.57;4.95;;;18.70;59.00;;;;;;6152330;23;20151;-84
2021/05/29 01:01:58;;;;;;;6.13;4.90;;;18.70;59.00;;;;;;6151243;23;20153;-84
2021/05/29 01:04:24;;;;;;;5.95;4.95;;;18.70;58.90;;;;;;6151999;23;20146;-84
2021/05/29 01:06:51;;;;;;;6.20;5.35;;;18.70;59.00;;;;;;6176207;23;20151;-84
2021/05/29 01:09:29;;;;;;;6.82;5.63;;;18.70;59.10;;;;;;6151142;23;20289;-84
2021/05/29 01:11:56;;;;;;;6.35;5.22;;;18.70;59.10;;;;;;6151776;23;20139;-84
2021/05/29 01:14:24;;;;;;;5.70;5.03;;;18.70;59.10;;;;;;6177036;23;20151;-84
2021/05/29 01:17:01;;;;;;;6.47;5.40;;;18.70;59.10;;;;;;6151054;23;20263;-84
2021/05/29 01:19:35;;;;;;;5.63;5.03;;;18.70;59.20;;;;;;6152065;23;20139;-84
2021/05/29 01:22:11;;;;;;;6.25;5.30;;;18.70;59.10;;;;;;6176064;23;20218;-84
2021/05/29 01:24:39;;;;;;;6.40;5.53;;;18.70;59.10;;;;;;6151694;23;20147;-84
2021/05/29 01:27:09;;;;;;;5.75;4.88;;;18.70;59.30;;;;;;6126540;23;20556;-84
2021/05/29 01:29:45;;;;;;;6.13;5.53;;;18.70;59.20;;;;;;6152074;23;20154;-84
2021/05/29 01:32:40;;;;;;;6.43;5.63;;;18.70;59.30;;;;;;6175565;23;20153;-84
2021/05/29 01:35:09;;;;;;;6.53;5.28;;;18.60;59.20;;;;;;6152761;23;20202;-84
2021/05/29 01:37:36;;;;;;;6.07;4.95;;;18.70;59.30;;;;;;6151506;23;20198;-84
2021/05/29 01:40:06;;;;;;;7.47;5.78;;;18.60;59.40;;;;;;6126402;23;20178;-84
2021/05/29 01:42:48;;;;;;;6.45;5.38;;;18.60;59.90;;;;;;6176632;23;20158;-84
2021/05/29 01:45:42;;;;;;;5.82;5.10;;;18.60;59.20;;;;;;6177781;23;20131;-84
2021/05/29 01:48:34;;;;;;;5.63;5.03;;;18.60;59.30;;;;;;6176891;23;20146;-84
2021/05/29 01:51:04;;;;;;;5.80;5.13;;;18.60;59.40;;;;;;6175623;23;20138;-85
2021/05/29 01:53:32;;;;;;;5.97;5.38;;;18.60;59.40;;;;;;6151595;23;20143;-85
2021/05/29 01:56:01;;;;;;;6.07;5.15;;;18.60;59.20;;;;;;6175553;23;20229;-84
2021/05/29 01:58:30;;;;;;;5.93;5.00;;;18.60;59.30;;;;;;6150777;23;20154;-84
2021/05/29 02:01:12;;;;;;;6.22;5.28;;;18.60;59.20;;;;;;6151014;23;20162;-84
2021/05/29 02:03:45;;;;;;;6.28;5.32;;;18.60;59.20;;;;;;6151891;23;20206;-84
2021/05/29 02:06:13;;;;;;;6.10;4.97;;;18.60;59.20;;;;;;6176340;23;20436;-84
2021/05/29 02:08:44;;;;;;;6.38;5.28;;;18.60;59.20;;;;;;6150814;23;20146;-84
2021/05/29 02:11:42;;;;;;;5.78;5.18;;;18.60;59.10;;;;;;6150684;23;20149;-84
2021/05/29 02:14:29;;;;;;;5.90;5.15;;;18.60;59.20;;;;;;6057956;23;20204;-84
2021/05/29 02:16:56;;;;;;;6.25;5.25;;;18.60;59.20;;;;;;6057805;23;20256;-84
2021/05/29 02:19:29;;;;;;;6.45;5.45;;;18.60;59.30;;;;;;6033966;23;20157;-84
2021/05/29 02:22:19;;;;;;;6.50;5.15;;;18.60;59.30;;;;;;6033309;23;20153;-85
2021/05/29 02:24:46;;;;;;;5.78;5.05;;;18.60;59.30;;;;;;6081992;23;20177;-84
2021/05/29 02:27:27;;;;;;;5.70;5.00;;;18.60;59.30;;;;;;6034197;23;20258;-84
2021/05/29 02:29:57;;;;;;;6.35;5.07;;;18.60;59.20;;;;;;6057641;23;20133;-84
2021/05/29 02:32:32;;;;;;;6.13;5.22;;;18.60;59.10;;;;;;6033552;23;20146;-84
2021/05/29 02:35:05;;;;;;;7.20;5.00;;;18.60;59.30;;;;;;6033625;23;20148;-84
2021/05/29 02:37:32;;;;;;;5.82;4.90;;;18.60;59.30;;;;;;6029801;23;20189;-84
2021/05/29 02:40:16;;;;;;;6.35;5.43;;;18.60;59.30;;;;;;6028808;23;20150;-84
2021/05/29 02:42:52;;;;;;;6.43;5.40;;;18.60;59.30;;;;;;6028498;23;20157;-84
2021/05/29 02:45:23;;;;;;;6.80;5.30;;;18.60;59.30;;;;;;6028717;23;20150;-84
2021/05/29 02:47:53;;;;;;;6.82;4.93;;;18.60;59.20;;;;;;6052691;23;20145;-84
2021/05/29 02:50:26;;;;;;;5.93;5.28;;;18.60;59.20;;;;;;6072023;23;20159;-84
2021/05/29 02:53:03;;;;;;;6.55;5.50;;;18.50;59.30;;;;;;6170472;23;20136;-84
2021/05/29 02:55:32;;;;;;;6.55;5.72;;;18.60;59.40;;;;;;6119675;23;20174;-84
2021/05/29 02:58:09;;;;;;;6.32;5.03;;;18.50;59.20;;;;;;6120068;23;20162;-84
2021/05/29 03:00:42;;;;;;;6.25;5.40;;;18.60;59.30;;;;;;6119793;23;20147;-84
2021/05/29 03:03:20;;;;;;;6.28;5.43;;;18.50;59.10;;;;;;6120655;23;20144;-84
2021/05/29 03:05:59;;;;;;;6.97;5.50;;;18.50;59.30;;;;;;6120142;23;20147;-84
2021/05/29 03:08:30;;;;;;;5.53;4.72;;;18.50;59.30;;;;;;6144841;23;20162;-84
2021/05/29 03:10:57;;;;;;;5.72;5.13;;;18.50;59.20;;;;;;6120010;23;20147;-84
2021/05/29 03:13:32;;;;;;;6.47;5.25;;;18.50;59.20;;;;;;6145179;23;20144;-84
2021/05/29 03:15:59;;;;;;;5.97;5.10;;;18.50;59.30;;;;;;6119282;23;20207;-84
2021/05/29 03:18:24;;;;;;;6.82;5.15;;;18.50;59.30;;;;;;6119824;23;20146;-84
2021/05/29 03:20:52;;;;;;;5.85;5.20;;;18.50;59.30;;;;;;6096261;23;20143;-84
2021/05/29 03:23:27;;;;;;;7.07;5.32;;;18.60;59.40;;;;;;6120772;23;20154;-84
2021/05/29 03:25:54;;;;;;;5.85;5.03;;;18.60;59.20;;;;;;6144440;23;20646;-84
2021/05/29 03:28:24;;;;;;;6.32;5.18;;;18.50;59.20;;;;;;6119859;23;20140;-84
2021/05/29 03:30:54;;;;;;;5.85;5.00;;;18.50;59.30;;;;;;6120259;23;20647;-84
2021/05/29 03:33:30;;;;;;;5.88;5.15;;;18.50;59.10;;;;;;6144360;23;20143;-84
2021/05/29 03:36:08;;;;;;;6.18;4.97;;;18.60;59.10;;;;;;6120301;23;20186;-84
2021/05/29 03:38:36;;;;;;;6.15;5.15;;;18.50;58.90;;;;;;6130226;23;20198;-84
2021/05/29 03:41:10;;;;;;;6.38;5.35;;;18.60;58.90;;;;;;6119934;23;20182;-84
2021/05/29 03:43:38;;;;;;;5.80;5.20;;;18.60;59.10;;;;;;6119640;23;20147;-84
2021/05/29 03:46:05;;;;;;;6.82;5.68;;;18.60;59.00;;;;;;6143745;23;20127;-84
2021/05/29 03:48:33;;;;;;;5.88;4.90;;;18.60;59.00;;;;;;6119445;23;20174;-84
2021/05/29 03:51:03;;;;;;;6.40;5.45;;;18.60;59.00;;;;;;6144359;23;20226;-84
2021/05/29 03:53:30;;;;;;;6.13;5.18;;;18.60;58.80;;;;;;6120830;23;20143;-84
2021/05/29 03:55:57;;;;;;;6.55;5.30;;;18.60;58.80;;;;;;6144217;23;20168;-84
2021/05/29 03:58:24;;;;;;;5.70;4.80;;;18.60;58.70;;;;;;6145237;23;20139;-84
2021/05/29 04:00:52;;;;;;;6.70;5.32;;;18.60;58.70;;;;;;6120324;23;20207;-84
2021/05/29 04:03:20;;;;;;;6.65;5.07;;;18.60;58.60;;;;;;6147093;23;20131;-84
2021/05/29 04:05:46;;;;;;;6.95;5.38;;;18.60;58.50;;;;;;6121730;23;20147;-84
2021/05/29 04:08:13;;;;;;;5.50;4.90;;;18.70;58.60;;;;;;6146531;23;20159;-84
2021/05/29 04:10:49;;;;;;;5.82;5.05;;;18.70;58.50;;;;;;6121514;23;20146;-84
2021/05/29 04:13:19;;;;;;;5.82;4.93;;;18.70;58.50;;;;;;6121103;23;20150;-84
2021/05/29 04:15:56;;;;;;;5.80;4.90;;;18.70;58.70;;;;;;6121376;23;20175;-84
2021/05/29 04:18:23;;;;;;;5.68;5.00;;;18.70;58.50;;;;;;6146253;23;20132;-84
2021/05/29 04:20:50;;;;;;;5.97;5.07;;;18.70;58.40;;;;;;6122453;23;20198;-84
2021/05/29 04:23:19;;;;;;;5.32;4.72;;;18.70;58.40;;;;;;6122532;23;20140;-84
2021/05/29 04:25:45;;;;;;;6.90;5.25;;;18.70;59.00;;;;;;6121689;23;20232;-84
2021/05/29 04:28:13;;;;;;;5.65;4.85;;;18.70;58.20;;;;;;6121984;23;20171;-84
2021/05/29 04:30:43;;;;;;;5.85;5.18;;;18.70;58.20;;;;;;6146048;23;20463;-84
2021/05/29 04:33:18;;;;;;;5.95;5.30;;;18.80;58.10;;;;;;6121854;23;20140;-85
2021/05/29 04:35:45;;;;;;;6.65;5.13;;;18.80;58.10;;;;;;6120835;23;20178;-84
2021/05/29 04:38:11;;;;;;;5.07;4.53;;;18.80;58.20;;;;;;6182766;23;20188;-84
2021/05/29 04:40:37;;;;;;;5.68;5.05;;;18.80;58.00;;;;;;6126387;23;20174;-84
2021/05/29 04:43:04;;;;;;;5.65;4.93;;;18.80;57.90;;;;;;6176033;23;20150;-84
2021/05/29 04:45:32;;;;;;;5.07;4.57;;;18.90;57.80;;;;;;6150354;23;20143;-84
2021/05/29 04:48:00;;;;;;;6.00;5.13;;;18.90;57.80;;;;;;6149630;23;20197;-84
2021/05/29 04:50:26;;;;;;;5.57;4.97;;;18.80;57.80;;;;;;6174028;23;20158;-84
2021/05/29 04:52:52;;;;;;;5.63;4.60;;;18.80;57.70;;;;;;6151402;23;20648;-84
2021/05/29 04:55:20;;;;;;;5.47;4.78;;;18.90;57.80;;;;;;6151253;23;20131;-84
2021/05/29 04:57:47;;;;;;;5.28;4.75;;;18.80;57.30;;;;;;6175046;23;20162;-83
2021/05/29 05:00:19;;;;;;;5.53;4.95;;;18.90;57.50;;;;;;6174088;23;20209;-84
2021/05/29 05:02:49;;;;;;;6.05;5.00;;;18.90;57.90;;;;;;6175767;23;20124;-84
2021/05/29 05:05:17;;;;;;;5.75;4.82;;;18.80;57.60;;;;;;6174935;23;20189;-84
2021/05/29 05:07:51;;;;;;;5.25;4.75;;;18.90;57.50;;;;;;6139136;23;20206;-84
2021/05/29 05:10:26;;;;;;;6.10;5.10;;;19.00;57.40;;;;;;6175079;23;20137;-84
2021/05/29 05:12:53;;;;;;;5.55;4.93;;;19.00;57.30;;;;;;6174416;23;20137;-84
2021/05/29 05:15:19;;;;;;;6.55;5.15;;;19.00;57.30;;;;;;6149886;23;20219;-84
2021/05/29 05:17:46;;;;;;;6.50;5.20;;;19.00;57.20;;;;;;6150597;23;20157;-84
2021/05/29 05:20:14;;;;;;;5.53;4.90;;;19.00;57.10;;;;;;6150667;23;20182;-84
2021/05/29 05:22:42;;;;;;;5.60;4.85;;;19.10;57.00;;;;;;6174701;23;20187;-83
2021/05/29 05:25:19;;;;;;;5.30;4.63;;;19.10;57.10;;;;;;6160390;23;20151;-84
2021/05/29 05:27:46;;;;;;;6.65;5.07;;;19.10;57.10;;;;;;6150753;23;20226;-84
2021/05/29 05:30:22;;;;;;;6.22;4.97;;;19.10;57.10;;;;;;6149462;23;20146;-84
2021/05/29 05:32:49;;;;;;;5.30;4.70;;;19.10;56.90;;;;;;6150353;23;20186;-84
2021/05/29 05:35:21;;;;;;;5.22;4.72;;;19.10;56.80;;;;;;6150080;23;20135;-84
2021/05/29 05:37:47;;;;;;;5.40;4.70;;;19.10;56.80;;;;;;6150116;23;20619;-84
2021/05/29 05:40:15;;;;;;;5.53;4.75;;;19.10;56.70;;;;;;6150304;23;20163;-84
2021/05/29 05:42:42;;;;;;;5.53;4.78;;;19.20;56.90;;;;;;6151036;23;20135;-84
2021/05/29 05:45:10;;;;;;;5.72;4.82;;;19.10;56.90;;;;;;6150101;23;20150;-84
2021/05/29 05:47:37;;;;;;;5.40;4.78;;;19.20;56.70;;;;;;6174545;23;20143;-84
2021/05/29 05:50:08;;;;;;;5.05;4.45;;;19.20;56.70;;;;;;6175539;23;20131;-84
2021/05/29 05:52:43;;;;;;;5.00;4.50;;;19.20;56.60;;;;;;6150242;23;20170;-84
2021/05/29 05:55:13;;;;;;;5.65;4.90;;;19.20;56.70;;;;;;6149678;23;20151;-84
2021/05/29 05:57:40;;;;;;;5.47;4.70;;;19.20;56.70;;;;;;6174078;23;20232;-84
2021/05/29 06:00:16;;;;;;;5.70;4.78;;;19.20;56.60;;;;;;6174352;23;20143;-84
2021/05/29 06:02:43;;;;;;;5.20;4.60;;;19.20;56.50;;;;;;6174528;23;20131;-84
2021/05/29 06:05:29;;;;;;;5.53;4.80;;;19.30;56.50;;;;;;6151113;23;20151;-84
2021/05/29 06:08:04;;;;;;;5.47;4.78;;;19.30;56.50;;;;;;6198599;23;20630;-84
2021/05/29 06:10:30;;;;;;;5.60;4.85;;;19.30;56.50;;;;;;6149985;23;20154;-83
2021/05/29 06:12:56;;;;;;;5.60;4.93;;;19.30;56.40;;;;;;6174815;23;20132;-84
2021/05/29 06:21:01;;;;;;;6.25;5.22;;;19.20;56.70;;;;;;6090442;23;20227;-84
2021/05/29 06:23:31;;;;;;;5.65;4.75;;;19.20;56.60;;;;;;6085973;23;20149;-84
2021/05/29 06:26:02;;;;;;;5.78;4.93;;;19.30;56.40;;;;;;6064389;23;20177;-84
2021/05/29 06:28:36;;;;;;;4.90;4.40;;;19.30;56.50;;;;;;6086367;23;20275;-83
2021/05/29 06:31:04;;;;;;;6.05;4.90;;;19.20;56.40;;;;;;6082288;23;20144;-83
2021/05/29 06:33:31;;;;;;;5.90;4.70;;;19.30;56.40;;;;;;6058043;23;20172;-83
2021/05/29 06:35:58;;;;;;;5.53;4.65;;;19.30;56.50;;;;;;6088796;23;20175;-84
2021/05/29 06:38:24;;;;;;;5.22;4.55;;;19.30;56.40;;;;;;6064712;23;20196;-84
2021/05/29 06:40:52;;;;;;;5.18;4.63;;;19.30;56.30;;;;;;6063392;23;20167;-83
2021/05/29 06:43:19;;;;;;;5.13;4.47;;;19.30;56.30;;;;;;6063041;23;20230;-83
2021/05/29 06:45:46;;;;;;;5.00;4.50;;;19.40;56.30;;;;;;6112401;23;20149;-84
2021/05/29 06:48:20;;;;;;;5.55;4.97;;;19.40;56.20;;;;;;6086885;23;20196;-83
2021/05/29 06:50:54;;;;;;;6.03;4.75;;;19.40;56.20;;;;;;6063668;23;20160;-83
2021/05/29 06:53:26;;;;;;;5.43;4.88;;;19.40;56.00;;;;;;6087133;23;20478;-83
2021/05/29 06:58:50;;;;;;;6.13;4.88;;;19.40;56.20;;;;;;6165643;23;20207;-83
2021/05/29 07:01:38;;;;;;;6.53;4.82;;;19.30;56.40;;;;;;6176874;23;20138;-84
2021/05/29 07:04:06;;;;;;;6.45;4.57;;;19.40;56.20;;;;;;6169938;23;20544;-84
2021/05/29 07:06:33;;;;;;;5.55;4.80;;;19.40;56.00;;;;;;6174252;23;20190;-83
2021/05/29 07:09:01;;;;;;;5.53;4.90;;;19.40;56.20;;;;;;6151101;23;20155;-84
2021/05/29 07:11:29;;;;;;;5.90;4.70;;;19.40;56.20;;;;;;6153400;23;20471;-84
2021/05/29 07:13:56;;;;;;;5.72;4.93;;;19.40;56.20;;;;;;6175839;23;20215;-84
2021/05/29 07:16:25;;;;;;;5.78;4.70;;;19.30;56.20;;;;;;6153221;23;20185;-84
2021/05/29 07:19:00;;;;;;;5.53;4.80;;;19.30;56.20;;;;;;6154873;23;20145;-84
2021/05/29 07:21:33;;;;;;;5.60;4.70;;;19.40;56.20;;;;;;6176521;23;20145;-83
2021/05/29 07:24:07;;;;;;;5.20;4.70;;;19.30;56.20;;;;;;6152803;23;20161;-84
2021/05/29 07:26:34;;;;;;;5.85;4.80;;;19.40;56.20;;;;;;6152267;23;20138;-84
2021/05/29 07:29:09;;;;;;;5.35;4.65;;;19.40;56.10;;;;;;6152944;23;20145;-83
2021/05/29 07:31:35;;;;;;;5.00;4.50;;;19.40;56.20;;;;;;6153442;23;20142;-83
2021/05/29 07:34:04;;;;;;;5.20;4.43;;;19.40;56.20;;;;;;6151461;23;20139;-84
2021/05/29 07:36:31;;;;;;;5.35;4.30;;;19.40;55.90;;;;;;6175369;23;20304;-83
2021/05/29 07:39:06;;;;;;;5.07;4.57;;;19.40;55.90;;;;;;6150841;23;20191;-83
2021/05/29 07:41:35;;;;;;;5.40;4.60;;;19.50;55.80;;;;;;6147913;23;20138;-85
2021/05/29 07:44:01;;;;;;;5.88;4.82;;;19.50;55.90;;;;;;6172189;23;20127;-84
2021/05/29 07:46:30;;;;;;;4.88;4.38;;;19.40;55.90;;;;;;6122746;23;20489;-84
2021/05/29 07:48:59;;;;;;;6.28;4.45;;;19.40;56.20;;;;;;6148959;23;20590;-84
2021/05/29 07:51:26;;;;;;;6.70;4.75;;;19.40;56.10;;;;;;6174956;23;20127;-84
2021/05/29 07:53:57;;;;;;;5.15;4.63;;;19.40;56.10;;;;;;6150540;23;20444;-84
2021/05/29 07:56:24;;;;;;;5.18;4.60;;;19.40;56.00;;;;;;6174569;23;20163;-83
2021/05/29 07:59:05;;;;;;;5.60;4.70;;;19.40;55.90;;;;;;6151290;23;20147;-84
2021/05/29 08:01:33;;;;;;;5.93;4.80;;;19.40;56.00;;;;;;6117755;23;20172;-83
2021/05/29 08:04:03;;;;;;;5.30;4.80;;;19.50;55.80;;;;;;6093041;23;20152;-83
2021/05/29 08:06:30;;;;;;;5.28;4.50;;;19.40;55.90;;;;;;6095741;23;20155;-84
2021/05/29 08:09:06;;;;;;;5.35;4.50;;;19.50;55.80;;;;;;6096027;23;20136;-84
2021/05/29 08:11:35;;;;;;;5.88;5.03;;;19.50;55.80;;;;;;6120186;23;20197;-84
2021/05/29 08:14:09;;;;;;;5.45;4.72;;;19.50;55.80;;;;;;6095104;23;20183;-84
2021/05/29 08:16:39;;;;;;;6.63;4.78;;;19.50;55.70;;;;;;6095268;23;20171;-84
2021/05/29 08:19:09;;;;;;;5.70;4.78;;;19.60;55.50;;;;;;6095401;23;20124;-84
2021/05/29 08:21:36;;;;;;;5.35;4.53;;;19.60;55.50;;;;;;6094321;23;20155;-84
2021/05/29 08:24:04;;;;;;;4.78;4.28;;;19.60;55.50;;;;;;6094131;23;20144;-84
2021/05/29 08:26:32;;;;;;;5.90;5.00;;;19.60;55.50;;;;;;6094562;23;20223;-84
2021/05/29 08:29:05;;;;;;;5.32;4.80;;;19.60;55.50;;;;;;6094050;23;20149;-84
2021/05/29 08:31:33;;;;;;;5.50;4.68;;;19.60;55.40;;;;;;6103354;23;20144;-84
2021/05/29 08:34:03;;;;;;;5.22;4.60;;;19.60;55.30;;;;;;6155246;23;20177;-84
2021/05/29 08:36:38;;;;;;;5.65;4.50;;;19.60;55.40;;;;;;6176226;23;20198;-84
2021/05/29 08:39:10;;;;;;;5.40;4.88;;;19.70;55.20;;;;;;6173898;23;20196;-84
2021/05/29 08:41:46;;;;;;;4.85;4.22;;;19.70;55.20;;;;;;6172728;23;20131;-84
2021/05/29 08:44:13;;;;;;;5.50;4.80;;;19.70;55.30;;;;;;6147398;23;20165;-85
2021/05/29 08:46:48;;;;;;;5.75;4.70;;;19.70;55.20;;;;;;6147139;23;20146;-85
2021/05/29 08:49:15;;;;;;;5.28;4.68;;;19.80;55.10;;;;;;6149751;23;20161;-83
2021/05/29 08:51:50;;;;;;;5.10;4.60;;;19.80;55.10;;;;;;6149721;23;20145;-84
2021/05/29 08:54:27;;;;;;;5.15;4.47;;;19.70;55.10;;;;;;6149647;23;20439;-85
2021/05/29 08:56:54;;;;;;;6.55;4.78;;;19.70;55.10;;;;;;6148748;23;20221;-84
2021/05/29 08:59:22;;;;;;;5.57;4.60;;;19.70;55.20;;;;;;6150707;23;20151;-84
2021/05/29 09:01:49;;;;;;;5.18;4.68;;;19.60;55.50;;;;;;6149612;23;20221;-84
2021/05/29 09:04:17;;;;;;;6.68;5.28;;;19.60;55.20;;;;;;6151808;23;20481;-84
2021/05/29 09:06:45;;;;;;;5.70;4.95;;;19.70;54.80;;;;;;6149062;23;20181;-84
2021/05/29 09:09:15;;;;;;;5.25;4.75;;;19.70;54.90;;;;;;6147132;23;20127;-84
2021/05/29 09:11:47;;;;;;;5.00;4.22;;;19.60;55.00;;;;;;6146493;23;20147;-84
2021/05/29 09:14:26;;;;;;;5.63;4.75;;;19.60;55.00;;;;;;6197087;23;20133;-85
2021/05/29 09:17:21;;;;;;;6.88;4.90;;;19.50;55.30;;;;;;6169705;23;20201;-85
2021/05/29 09:19:57;;;;;;;4.82;4.32;;;19.50;55.50;;;;;;6171147;23;20191;-84
2021/05/29 09:22:53;;;;;;;7.45;4.82;;;19.60;55.40;;;;;;6195851;23;20201;-83
2021/05/29 09:25:25;;;;;;;5.75;4.10;;;19.70;55.00;;;;;;6193695;23;20615;-85
2021/05/29 09:27:56;;;;;;;5.30;4.68;;;19.70;54.80;;;;;;6168326;23;20571;-85
2021/05/29 09:30:35;;;;;;;6.38;4.38;;;19.80;54.80;;;;;;6142476;23;20146;-84
2021/05/29 09:33:26;;;;;;;5.47;4.95;;;19.80;54.60;;;;;;6166096;23;20266;-86
2021/05/29 09:35:58;;;;;;;5.20;4.70;;;19.90;54.60;;;;;;6141537;23;20182;-84
2021/05/29 09:38:25;;;;;;;5.43;4.80;;;19.80;54.60;;;;;;6166545;23;20201;-84
2021/05/29 09:41:00;;;;;;;5.15;4.40;;;19.80;54.80;;;;;;6117328;23;20155;-83
2021/05/29 09:43:29;;;;;;;4.80;4.30;;;19.80;54.80;;;;;;6142147;23;20147;-84
2021/05/29 09:46:03;;;;;;;5.47;4.60;;;19.80;54.90;;;;;;6142985;23;20192;-83
2021/05/29 09:48:32;;;;;;;6.13;4.70;;;19.70;55.00;;;;;;6142547;23;20208;-84
2021/05/29 09:51:03;;;;;;;5.80;4.75;;;19.70;55.10;;;;;;6142236;23;20151;-84
2021/05/29 09:53:38;;;;;;;5.82;4.47;;;19.70;54.70;;;;;;6195286;23;20131;-84
2021/05/29 09:56:06;;;;;;;6.70;4.45;;;19.80;54.60;;;;;;6165847;23;20180;-85
2021/05/29 09:59:11;;;;;;;7.13;4.70;;;19.80;54.60;;;;;;6144697;23;20151;-83
2021/05/29 10:01:47;;;;;;;5.50;4.90;;;19.70;54.70;;;;;;6049675;23;20145;-84
2021/05/29 10:06:58;;;;;;;6.82;4.40;;;19.70;55.00;;;;;;6074023;23;20141;-85
2021/05/29 10:09:31;;;;;;;6.47;4.57;;;19.70;55.10;;;;;;6049800;23;20489;-85
2021/05/29 10:11:59;;;;;;;6.35;5.10;;;19.70;55.00;;;;;;6024572;23;20149;-84
2021/05/29 10:14:27;;;;;;;5.65;4.43;;;19.70;55.10;;;;;;6047132;23;20141;-84
2021/05/29 10:16:54;;;;;;;5.85;4.75;;;19.70;55.10;;;;;;6025643;23;20188;-84
2021/05/29 10:19:22;;;;;;;5.15;4.40;;;19.70;55.00;;;;;;6070192;23;20232;-84
2021/05/29 10:21:52;;;;;;;5.25;4.60;;;19.70;55.00;;;;;;6023321;23;20160;-83
2021/05/29 10:24:21;;;;;;;5.82;4.85;;;19.80;54.90;;;;;;6024245;23;20224;-84
2021/05/29 10:26:56;;;;;;;5.45;4.80;;;19.80;54.80;;;;;;6047285;23;20142;-83
2021/05/29 10:29:26;;;;;;;5.70;4.55;;;19.70;54.80;;;;;;6023695;23;20156;-83
2021/05/29 10:32:18;;;;;;;5.25;4.75;;;19.70;54.90;;;;;;6047015;23;20153;-85
2021/05/29 10:34:56;;;;;;;5.40;4.63;;;19.70;54.90;;;;;;6091415;23;20146;-84
2021/05/29 10:37:35;;;;;;;5.53;4.90;;;19.80;54.80;;;;;;6137756;23;20187;-85
2021/05/29 10:40:23;;;;;;;5.47;4.47;;;19.80;54.90;;;;;;6162234;23;20159;-84
2021/05/29 10:43:29;;;;;;;5.63;4.38;;;19.70;55.00;;;;;;6162821;23;20131;-85
2021/05/29 10:45:55;;;;;;;7.22;5.05;;;19.80;55.00;;;;;;6044927;23;20593;-85
2021/05/29 10:48:25;;;;;;;5.75;4.55;;;19.80;54.90;;;;;;6045657;23;20236;-85
2021/05/29 10:53:49;;;;;;;5.57;4.90;;;19.70;55.10;;;;;;6069200;23;20137;-85
2021/05/29 10:56:17;;;;;;;5.57;4.65;;;19.70;55.00;;;;;;6068881;23;20271;-84
2021/05/29 10:59:22;;;;;;;5.72;4.80;;;19.70;55.00;;;;;;6047357;23;20145;-83
2021/05/29 11:01:53;;;;;;;5.60;4.68;;;19.70;55.00;;;;;;6070741;23;20582;-84
2021/05/29 11:04:23;;;;;;;5.45;4.65;;;19.70;55.10;;;;;;6044697;23;20182;-84
2021/05/29 11:07:18;;;;;;;5.93;4.80;;;19.70;55.00;;;;;;6022763;23;20240;-83
2021/05/29 11:09:57;;;;;;;5.07;4.57;;;19.60;55.20;;;;;;6068694;23;20154;-84
2021/05/29 11:12:46;;;;;;;5.32;4.63;;;19.60;55.20;;;;;;6022238;23;20582;-83
2021/05/29 11:15:12;;;;;;;5.57;4.75;;;19.60;55.20;;;;;;6046606;23;20209;-84
2021/05/29 11:17:39;;;;;;;5.13;4.60;;;19.60;55.10;;;;;;6020976;23;20297;-84
2021/05/29 11:20:11;;;;;;;5.18;4.57;;;19.60;54.90;;;;;;6068619;23;20145;-85
2021/05/29 11:22:42;;;;;;;7.43;4.95;;;19.60;55.00;;;;;;6162770;23;20233;-82
2021/05/29 11:25:19;;;;;;;5.78;4.80;;;19.60;55.20;;;;;;6140231;23;20475;-83
2021/05/29 11:27:54;;;;;;;5.07;4.50;;;19.50;55.30;;;;;;6189643;23;20138;-84
2021/05/29 11:30:20;;;;;;;6.00;4.68;;;19.60;55.40;;;;;;6162932;23;20185;-83
2021/05/29 11:35:30;;;;;;;5.45;4.60;;;19.60;55.10;;;;;;6190210;23;20139;-84
2021/05/29 11:38:18;;;;;;;5.20;4.70;;;19.60;55.10;;;;;;6164542;23;20198;-83
2021/05/29 11:40:46;;;;;;;5.53;4.72;;;19.60;55.00;;;;;;6190398;23;20143;-85
2021/05/29 11:43:16;;;;;;;5.75;4.97;;;19.70;55.10;;;;;;6190267;23;20455;-84
2021/05/29 11:45:43;;;;;;;5.07;4.38;;;19.60;55.10;;;;;;6139691;23;20142;-84
2021/05/29 11:48:10;;;;;;;4.90;4.40;;;19.60;55.10;;;;;;6165139;23;20138;-82
2021/05/29 11:51:08;;;;;;;4.93;4.43;;;19.60;55.10;;;;;;6142795;23;20151;-83
2021/05/29 11:53:33;;;;;;;7.18;5.20;;;19.60;55.10;;;;;;6168280;23;20539;-83
2021/05/29 11:56:03;;;;;;;5.47;4.50;;;19.60;55.10;;;;;;6190570;23;20167;-85
2021/05/29 11:58:51;;;;;;;6.63;5.00;;;19.60;55.20;;;;;;6141392;23;20169;-84
2021/05/29 12:01:20;;;;;;;5.55;4.82;;;19.60;55.20;;;;;;6163443;23;20143;-85
2021/05/29 12:03:47;;;;;;;5.88;4.90;;;19.60;55.20;;;;;;6165854;23;20147;-83
2021/05/29 12:06:31;;;;;;;5.90;5.22;;;19.60;55.30;;;;;;6164546;23;20147;-83
2021/05/29 12:08:57;;;;;;;5.82;4.72;;;19.50;55.40;;;;;;6164211;23;20214;-83
2021/05/29 12:11:31;;;;;;;5.50;4.70;;;19.50;55.60;;;;;;6138858;23;20488;-84
2021/05/29 12:14:03;;;;;;;5.18;4.68;;;19.50;55.50;;;;;;6165091;23;20154;-85
2021/05/29 12:16:34;;;;;;;5.70;4.60;;;19.60;55.40;;;;;;6190789;23;20159;-83
2021/05/29 12:19:07;;;;;;;7.43;4.78;;;19.60;55.60;;;;;;6139496;23;20471;-83
2021/05/29 12:22:06;;;;;;;5.88;4.70;;;19.50;55.60;;;;;;6162247;23;20242;-84
2021/05/29 12:24:41;;;;;;;5.47;4.63;;;19.50;55.70;;;;;;6160835;23;20150;-84
2021/05/29 12:27:13;;;;;;;5.72;4.35;;;19.60;55.60;;;;;;6138733;23;20244;-84
2021/05/29 12:29:43;;;;;;;5.68;4.72;;;19.60;55.60;;;;;;6138552;23;20150;-84
2021/05/29 12:32:11;;;;;;;6.25;5.10;;;19.60;55.50;;;;;;6190040;23;20555;-84
2021/05/29 12:34:50;;;;;;;5.07;4.57;;;19.60;55.50;;;;;;6139307;23;20242;-85
2021/05/29 12:37:23;;;;;;;5.78;4.18;;;19.60;55.40;;;;;;6191989;23;20159;-85
2021/05/29 12:40:03;;;;;;;5.28;4.57;;;19.60;55.50;;;;;;6165456;23;20202;-84
2021/05/29 12:42:38;;;;;;;6.55;4.78;;;19.70;55.30;;;;;;6191975;23;20205;-83
2021/05/29 12:45:24;;;;;;;4.95;4.35;;;19.60;55.30;;;;;;6165809;23;20150;-83
2021/05/29 12:48:05;;;;;;;6.32;4.88;;;19.60;55.50;;;;;;6141507;23;20155;-85
2021/05/29 12:53:34;;;;;;;6.80;4.70;;;19.60;55.50;;;;;;6169169;23;20193;-83
2021/05/29 12:56:13;;;;;;;5.30;4.60;;;19.60;55.50;;;;;;6140155;23;20182;-82
2021/05/29 12:58:40;;;;;;;5.88;4.70;;;19.60;55.50;;;;;;6166897;23;20195;-83
2021/05/29 13:09:39;;;;;;;6.00;4.60;;;19.60;55.40;;;;;;6191606;23;20189;-84
2021/05/29 13:12:19;;;;;;;4.72;4.05;;;19.60;55.40;;;;;;6142452;23;20482;-82
2021/05/29 13:14:46;;;;;;;5.18;4.57;;;19.60;55.50;;;;;;6167288;23;20582;-83
2021/05/29 13:17:27;;;;;;;5.38;4.55;;;19.60;55.50;;;;;;6192290;23;20493;-84
2021/05/29 13:20:05;;;;;;;5.85;4.65;;;19.60;55.50;;;;;;6165217;23;20127;-84
2021/05/29 13:22:40;;;;;;;5.50;4.28;;;19.60;55.40;;;;;;6165759;23;20159;-85
2021/05/29 13:25:10;;;;;;;5.35;4.40;;;19.60;55.50;;;;;;6140691;23;20220;-84
2021/05/29 13:27:56;;;;;;;5.68;4.78;;;19.60;55.50;;;;;;6165348;23;20155;-84
2021/05/29 13:30:26;;;;;;;5.85;4.45;;;19.70;55.60;;;;;;6136994;23;20150;-83
2021/05/29 13:33:06;;;;;;;5.32;4.32;;;19.60;55.50;;;;;;6165398;23;20218;-82
2021/05/29 13:35:33;;;;;;;6.80;4.85;;;19.60;55.50;;;;;;6165753;23;20569;-83
2021/05/29 13:37:59;;;;;;;6.85;4.63;;;19.60;55.50;;;;;;6165446;23;20190;-84
2021/05/29 13:40:26;;;;;;;4.78;4.10;;;19.70;55.50;;;;;;6116743;23;20581;-83
2021/05/29 13:42:53;;;;;;;6.38;4.50;;;19.60;55.50;;;;;;6140677;23;20487;-82